createdAt,value
2017-09-15T00:01:59.576Z,18.80
2017-09-15T00:04:26.680Z,21.57
2017-09-15T00:06:53.603Z,16.63
2017-09-15T00:09:20.444Z,18.33
2017-09-15T00:11:47.271Z,18.93
2017-09-15T00:14:14.068Z,20.87
2017-09-15T00:16:41.204Z,16.90
2017-09-15T00:19:08.030Z,18.40
2017-09-15T00:21:34.827Z,19.27
2017-09-15T00:24:01.688Z,17.73
2017-09-15T00:26:28.516Z,18.90
2017-09-15T00:28:55.344Z,17.60
2017-09-15T00:31:22.203Z,17.50
2017-09-15T00:33:49.318Z,20.07
2017-09-15T00:36:16.136Z,18.40
2017-09-15T00:38:43.204Z,15.40
2017-09-15T00:41:10.009Z,17.83
2017-09-15T00:43:36.844Z,15.00
2017-09-15T00:46:03.684Z,14.90
2017-09-15T00:48:30.512Z,14.33
2017-09-15T00:50:57.624Z,14.70
2017-09-15T00:53:24.548Z,13.70
2017-09-15T00:55:51.387Z,13.17
2017-09-15T00:58:18.458Z,10.87
2017-09-15T01:00:45.305Z,14.50
2017-09-15T01:03:12.115Z,12.80
2017-09-15T01:05:39.195Z,10.57
2017-09-15T01:08:06.038Z,11.10
2017-09-15T01:10:32.853Z,10.50
2017-09-15T01:12:59.933Z,11.00
2017-09-15T01:15:26.758Z,10.23
2017-09-15T01:17:53.564Z,10.03
2017-09-15T01:20:20.369Z,9.00
2017-09-15T01:22:47.209Z,8.83
2017-09-15T01:25:14.244Z,9.93
2017-09-15T01:27:41.056Z,10.00
2017-09-15T01:30:08.135Z,11.30
2017-09-15T01:32:34.965Z,9.57
2017-09-15T01:35:02.132Z,11.73
2017-09-15T01:37:28.952Z,10.70
2017-09-15T01:39:56.019Z,10.23
2017-09-15T01:42:22.854Z,9.00
2017-09-15T01:44:49.690Z,9.80
2017-09-15T01:47:16.860Z,6.17
2017-09-15T01:49:43.684Z,8.23
2017-09-15T01:52:10.532Z,8.10
2017-09-15T01:54:37.697Z,6.17
2017-09-15T01:57:04.508Z,6.50
2017-09-15T01:59:31.355Z,5.90
2017-09-15T02:01:58.433Z,5.20
2017-09-15T02:04:25.240Z,5.37
2017-09-15T02:06:52.080Z,4.53
2017-09-15T02:09:18.876Z,5.07
2017-09-15T02:11:45.696Z,5.00
2017-09-15T02:14:12.536Z,4.37
2017-09-15T02:16:39.364Z,4.50
2017-09-15T02:19:06.151Z,3.90
2017-09-15T02:21:33.022Z,4.30
2017-09-15T02:23:59.820Z,3.90
2017-09-15T02:26:26.612Z,3.33
2017-09-15T02:28:53.448Z,3.93
2017-09-15T02:31:20.260Z,3.60
2017-09-15T02:33:47.397Z,4.57
2017-09-15T02:36:14.208Z,3.73
2017-09-15T02:38:41.003Z,3.83
2017-09-15T02:41:07.834Z,3.60
2017-09-15T02:43:34.679Z,3.83
2017-09-15T02:46:01.482Z,4.43
2017-09-15T02:48:28.552Z,4.27
2017-09-15T02:50:55.371Z,4.40
2017-09-15T02:53:22.156Z,4.27
2017-09-15T02:55:48.952Z,4.97
2017-09-15T02:58:16.027Z,4.60
2017-09-15T03:00:42.852Z,4.10
2017-09-15T03:03:09.643Z,4.00
2017-09-15T03:05:36.497Z,3.23
2017-09-15T03:08:03.288Z,3.50
2017-09-15T03:10:30.116Z,3.57
2017-09-15T03:12:57.288Z,3.40
2017-09-15T03:15:24.079Z,3.03
2017-09-15T03:17:51.180Z,4.40
2017-09-15T03:20:18.333Z,4.23
2017-09-15T03:22:45.132Z,3.90
2017-09-15T03:25:11.924Z,3.60
2017-09-15T03:27:38.761Z,3.97
2017-09-15T03:30:05.560Z,6.40
2017-09-15T03:32:32.353Z,3.70
2017-09-15T03:34:59.188Z,5.60
2017-09-15T03:37:26.004Z,4.13
2017-09-15T03:39:52.836Z,3.67
2017-09-15T03:42:19.919Z,3.90
2017-09-15T03:44:46.715Z,3.63
2017-09-15T03:47:13.532Z,4.03
2017-09-15T03:49:40.347Z,4.00
2017-09-15T03:52:07.150Z,3.20
2017-09-15T03:54:34.233Z,2.50
2017-09-15T03:57:01.074Z,3.80
2017-09-15T03:59:27.864Z,3.23
2017-09-15T04:01:54.656Z,3.97
2017-09-15T04:04:21.816Z,3.80
2017-09-15T04:06:48.608Z,4.10
2017-09-15T04:09:15.404Z,3.30
2017-09-15T04:11:42.295Z,4.00
2017-09-15T04:14:09.391Z,3.83
2017-09-15T04:16:36.196Z,5.40
2017-09-15T04:19:03.040Z,4.23
2017-09-15T04:21:29.833Z,3.67
2017-09-15T04:23:56.628Z,2.83
2017-09-15T04:26:23.464Z,3.97
2017-09-15T04:28:50.268Z,3.10
2017-09-15T04:31:17.100Z,3.90
2017-09-15T04:33:43.940Z,3.40
2017-09-15T04:36:10.728Z,3.43
2017-09-15T04:38:37.516Z,3.13
2017-09-15T04:41:04.337Z,4.57
2017-09-15T04:43:31.464Z,3.27
2017-09-15T04:45:58.279Z,3.60
2017-09-15T04:48:25.153Z,2.90
2017-09-15T04:50:51.985Z,4.23
2017-09-15T04:53:19.202Z,3.40
2017-09-15T04:55:46.077Z,2.67
2017-09-15T04:58:12.906Z,3.60
2017-09-15T05:00:39.737Z,2.83
2017-09-15T05:03:06.630Z,3.93
2017-09-15T05:05:33.485Z,2.90
2017-09-15T05:08:00.345Z,4.20
2017-09-15T05:10:27.215Z,3.03
2017-09-15T05:12:54.269Z,2.67
2017-09-15T05:15:21.143Z,3.20
2017-09-15T05:17:47.978Z,4.30
2017-09-15T05:20:14.853Z,2.70
2017-09-15T05:22:42.036Z,3.40
2017-09-15T05:25:09.186Z,4.17
2017-09-15T05:27:36.008Z,2.30
2017-09-15T05:30:03.066Z,2.40
2017-09-15T05:32:29.963Z,3.03
2017-09-15T05:34:56.790Z,2.33
2017-09-15T05:37:24.013Z,2.40
2017-09-15T05:39:50.905Z,2.60
2017-09-15T05:42:17.766Z,2.23
2017-09-15T05:44:44.646Z,3.40
2017-09-15T05:47:11.721Z,2.73
2017-09-15T05:49:38.601Z,3.13
2017-09-15T05:52:05.465Z,2.57
2017-09-15T05:54:32.314Z,2.27
2017-09-15T05:56:59.145Z,2.57
2017-09-15T05:59:25.978Z,2.80
2017-09-15T06:01:52.838Z,2.73
2017-09-15T06:04:20.003Z,2.17
2017-09-15T06:06:46.850Z,2.57
2017-09-15T06:09:13.701Z,2.63
2017-09-15T06:11:40.569Z,2.67
2017-09-15T06:14:07.413Z,3.40
2017-09-15T06:16:34.245Z,3.23
2017-09-15T06:19:01.109Z,2.67
2017-09-15T06:21:27.949Z,2.50
2017-09-15T06:23:54.806Z,2.67
2017-09-15T06:26:21.641Z,2.27
2017-09-15T06:28:48.489Z,3.10
2017-09-15T06:31:15.362Z,3.33
2017-09-15T06:33:42.527Z,3.03
2017-09-15T06:36:09.379Z,2.50
2017-09-15T06:38:36.229Z,4.50
2017-09-15T06:41:03.057Z,2.77
2017-09-15T06:43:30.210Z,2.67
2017-09-15T06:45:57.049Z,2.67
2017-09-15T06:48:24.201Z,2.90
2017-09-15T06:50:51.059Z,3.73
2017-09-15T06:53:18.197Z,2.67
2017-09-15T06:55:45.077Z,2.50
2017-09-15T06:58:11.981Z,3.00
2017-09-15T07:00:38.841Z,2.80
2017-09-15T07:03:05.755Z,2.77
2017-09-15T07:05:32.613Z,2.40
2017-09-15T07:07:59.445Z,2.90
2017-09-15T07:10:26.273Z,2.20
2017-09-15T07:12:53.451Z,2.33
2017-09-15T07:15:20.353Z,2.20
2017-09-15T07:17:47.442Z,2.37
2017-09-15T07:20:14.598Z,2.23
2017-09-15T07:22:41.515Z,2.13
2017-09-15T07:25:08.373Z,2.40
2017-09-15T07:27:35.230Z,2.97
2017-09-15T07:30:02.082Z,2.80
2017-09-15T07:32:29.221Z,2.23
2017-09-15T07:34:56.088Z,2.27
2017-09-15T07:37:23.320Z,1.87
2017-09-15T07:39:50.473Z,2.20
2017-09-15T07:42:17.321Z,3.13
2017-09-15T07:44:44.176Z,2.77
2017-09-15T07:47:11.323Z,2.07
2017-09-15T07:49:38.165Z,1.73
2017-09-15T07:52:05.041Z,2.87
2017-09-15T07:54:31.869Z,2.27
2017-09-15T07:56:58.691Z,2.33
2017-09-15T07:59:25.533Z,2.80
2017-09-15T08:01:52.665Z,2.10
2017-09-15T08:04:19.509Z,2.40
2017-09-15T08:06:46.332Z,2.03
2017-09-15T08:09:13.158Z,1.93
2017-09-15T08:11:40.016Z,3.00
2017-09-15T08:14:06.861Z,2.67
2017-09-15T08:16:33.766Z,2.33
2017-09-15T08:19:00.882Z,1.97
2017-09-15T08:21:27.698Z,3.17
2017-09-15T08:23:54.549Z,3.60
2017-09-15T08:26:21.725Z,1.67
2017-09-15T08:28:48.865Z,1.90
2017-09-15T08:31:15.713Z,3.03
2017-09-15T08:33:42.573Z,4.33
2017-09-15T08:36:09.697Z,2.57
2017-09-15T08:38:36.850Z,2.63
2017-09-15T08:41:03.732Z,2.40
2017-09-15T08:43:30.549Z,2.47
2017-09-15T08:45:57.398Z,2.23
2017-09-15T08:48:24.529Z,2.07
2017-09-15T08:50:51.682Z,2.87
2017-09-15T08:53:18.525Z,2.20
2017-09-15T08:55:45.680Z,2.30
2017-09-15T08:58:12.542Z,2.03
2017-09-15T09:00:39.366Z,3.00
2017-09-15T09:03:06.514Z,1.67
2017-09-15T09:05:33.375Z,1.90
2017-09-15T09:08:00.233Z,2.07
2017-09-15T09:10:27.070Z,2.20
2017-09-15T09:12:54.189Z,2.13
2017-09-15T09:15:21.069Z,1.60
2017-09-15T09:17:47.898Z,1.80
2017-09-15T09:20:14.716Z,1.83
2017-09-15T09:22:41.869Z,3.20
2017-09-15T09:25:08.693Z,2.33
2017-09-15T09:27:35.866Z,1.73
2017-09-15T09:30:02.710Z,1.63
2017-09-15T09:32:29.558Z,1.43
2017-09-15T09:34:56.697Z,1.93
2017-09-15T09:37:23.850Z,1.83
2017-09-15T09:39:50.709Z,2.20
2017-09-15T09:42:17.789Z,1.80
2017-09-15T09:44:44.889Z,1.73
2017-09-15T09:47:11.741Z,1.33
2017-09-15T09:49:38.580Z,1.20
2017-09-15T09:52:05.425Z,3.07
2017-09-15T09:54:32.250Z,1.33
2017-09-15T09:56:59.074Z,1.27
2017-09-15T09:59:26.158Z,1.13
2017-09-15T10:01:53.013Z,1.40
2017-09-15T10:04:19.849Z,1.10
2017-09-15T10:06:46.989Z,1.33
2017-09-15T10:09:13.802Z,1.53
2017-09-15T10:11:40.662Z,1.30
2017-09-15T10:14:07.505Z,1.13
2017-09-15T10:16:34.375Z,2.27
2017-09-15T10:19:01.513Z,0.97
2017-09-15T10:21:28.354Z,1.20
2017-09-15T10:23:55.505Z,1.80
2017-09-15T10:26:22.353Z,1.67
2017-09-15T10:28:49.217Z,1.33
2017-09-15T10:31:16.070Z,1.30
2017-09-15T10:33:43.189Z,0.90
2017-09-15T10:36:10.069Z,2.00
2017-09-15T10:38:36.891Z,0.90
2017-09-15T10:41:03.753Z,2.20
2017-09-15T10:43:30.577Z,1.60
2017-09-15T10:45:57.426Z,2.07
2017-09-15T10:48:24.278Z,2.20
2017-09-15T10:50:51.102Z,1.00
2017-09-15T10:53:18.165Z,1.40
2017-09-15T10:55:45.286Z,1.20
2017-09-15T10:58:12.113Z,0.97
2017-09-15T11:00:38.992Z,1.50
2017-09-15T11:03:05.825Z,1.53
2017-09-15T11:05:32.706Z,0.70
2017-09-15T11:07:59.538Z,1.43
2017-09-15T11:10:26.357Z,1.10
2017-09-15T11:12:53.202Z,1.10
2017-09-15T11:15:20.053Z,1.10
2017-09-15T11:17:47.055Z,0.83
2017-09-15T11:20:14.233Z,1.90
2017-09-15T11:22:41.080Z,1.10
2017-09-15T11:25:08.149Z,1.67
2017-09-15T11:27:35.264Z,1.00
2017-09-15T11:30:02.416Z,1.00
2017-09-15T11:32:29.209Z,1.00
2017-09-15T11:34:55.996Z,1.23
2017-09-15T11:37:22.808Z,1.60
2017-09-15T11:39:49.647Z,1.30
2017-09-15T11:42:16.467Z,1.93
2017-09-15T11:44:43.300Z,1.23
2017-09-15T11:47:10.412Z,1.37
2017-09-15T11:49:37.568Z,1.30
2017-09-15T11:52:04.376Z,1.47
2017-09-15T11:54:31.208Z,1.20
2017-09-15T11:56:58.011Z,1.80
2017-09-15T11:59:24.823Z,1.70
2017-09-15T12:01:51.674Z,0.97
2017-09-15T12:04:18.728Z,1.57
2017-09-15T12:06:45.880Z,1.50
2017-09-15T12:09:12.688Z,1.10
2017-09-15T12:11:39.505Z,0.80
2017-09-15T12:14:06.361Z,1.10
2017-09-15T12:16:33.168Z,1.10
2017-09-15T12:18:59.995Z,1.10
2017-09-15T12:21:26.852Z,1.57
2017-09-15T12:23:53.673Z,1.50
2017-09-15T12:26:20.829Z,1.10
2017-09-15T12:28:47.632Z,1.00
2017-09-15T12:31:14.455Z,1.80
2017-09-15T12:33:41.236Z,1.67
2017-09-15T12:36:08.041Z,1.13
2017-09-15T12:38:34.876Z,1.63
2017-09-15T12:41:01.703Z,1.30
2017-09-15T12:43:28.582Z,1.03
2017-09-15T12:45:55.403Z,1.33
2017-09-15T12:48:22.524Z,1.43
2017-09-15T12:50:49.324Z,1.60
2017-09-15T12:53:16.113Z,0.93
2017-09-15T12:55:43.158Z,1.03
2017-09-15T12:58:09.972Z,1.70
2017-09-15T13:00:36.761Z,1.27
2017-09-15T13:03:03.616Z,1.50
2017-09-15T13:05:30.460Z,1.40
2017-09-15T13:07:57.568Z,0.93
2017-09-15T13:10:24.401Z,1.43
2017-09-15T13:12:51.212Z,1.00
2017-09-15T13:15:18.032Z,1.10
2017-09-15T13:17:45.052Z,1.30
2017-09-15T13:20:11.872Z,2.13
2017-09-15T13:22:38.937Z,1.47
2017-09-15T13:25:05.764Z,1.00
2017-09-15T13:27:32.552Z,1.00
2017-09-15T13:29:59.380Z,1.13
2017-09-15T13:32:26.203Z,0.97
2017-09-15T13:34:53.360Z,1.00
2017-09-15T13:37:20.176Z,1.30
2017-09-15T13:39:47.247Z,1.40
2017-09-15T13:42:14.065Z,1.10
2017-09-15T13:44:40.917Z,1.23
2017-09-15T13:47:07.723Z,1.70
2017-09-15T13:49:34.541Z,1.40
2017-09-15T13:52:01.369Z,2.30
2017-09-15T13:54:28.437Z,1.77
2017-09-15T13:56:55.271Z,1.93
2017-09-15T13:59:22.056Z,1.57
2017-09-15T14:01:48.877Z,2.67
2017-09-15T14:04:15.696Z,1.47
2017-09-15T14:06:42.500Z,1.90
2017-09-15T14:09:09.345Z,2.90
2017-09-15T14:11:36.377Z,2.00
2017-09-15T14:14:03.192Z,1.90
2017-09-15T14:16:30.306Z,2.00
2017-09-15T14:18:57.112Z,1.93
2017-09-15T14:21:23.952Z,1.80
2017-09-15T14:23:51.035Z,2.13
2017-09-15T14:26:17.873Z,1.30
2017-09-15T14:28:44.696Z,1.30
2017-09-15T14:31:11.538Z,2.47
2017-09-15T14:33:38.616Z,1.80
2017-09-15T14:36:05.421Z,2.00
2017-09-15T14:38:32.219Z,1.90
2017-09-15T14:40:59.157Z,2.70
2017-09-15T14:43:26.009Z,1.87
2017-09-15T14:45:52.799Z,3.33
2017-09-15T14:48:19.614Z,2.00
2017-09-15T14:50:46.435Z,2.30
2017-09-15T14:53:13.256Z,4.33
2017-09-15T14:55:40.260Z,2.40
2017-09-15T14:58:07.079Z,2.90
2017-09-15T15:00:33.948Z,2.77
2017-09-15T15:03:00.757Z,3.10
2017-09-15T15:05:27.835Z,2.80
2017-09-15T15:07:54.740Z,2.70
2017-09-15T15:10:21.548Z,3.40
2017-09-15T15:12:48.348Z,4.80
2017-09-15T15:15:15.433Z,3.00
2017-09-15T15:17:42.311Z,4.07
2017-09-15T15:20:09.321Z,3.70
2017-09-15T15:22:36.131Z,3.30
2017-09-15T15:25:03.167Z,4.40
2017-09-15T15:27:30.099Z,3.77
2017-09-15T15:29:57.040Z,4.10
2017-09-15T15:32:23.849Z,4.80
2017-09-15T15:34:50.656Z,4.10
2017-09-15T15:37:17.743Z,6.00
2017-09-15T15:39:45.025Z,5.20
2017-09-15T15:42:11.857Z,4.53
2017-09-15T15:44:38.908Z,4.57
2017-09-15T15:47:05.957Z,6.70
2017-09-15T15:49:32.793Z,5.10
2017-09-15T15:51:59.601Z,3.90
2017-09-15T15:54:26.408Z,4.07
2017-09-15T15:56:53.204Z,4.63
2017-09-15T15:59:19.992Z,4.60
2017-09-15T16:01:46.798Z,4.73
2017-09-15T16:04:13.588Z,4.80
2017-09-15T16:06:40.405Z,5.10
2017-09-15T16:09:07.224Z,4.93
2017-09-15T16:11:34.016Z,4.07
2017-09-15T16:14:00.852Z,4.33
2017-09-15T16:16:27.689Z,3.50
2017-09-15T16:18:54.493Z,4.00
2017-09-15T16:24:06.356Z,4.90
2017-09-15T16:26:33.238Z,4.63
2017-09-15T16:29:00.192Z,3.93
2017-09-15T16:31:27.114Z,4.60
2017-09-15T16:33:54.024Z,4.80
2017-09-15T16:36:20.920Z,5.20
2017-09-15T16:38:47.825Z,4.70
2017-09-15T16:41:14.704Z,4.90
2017-09-15T16:43:41.602Z,5.73
2017-09-15T16:46:08.524Z,6.23
2017-09-15T16:48:35.384Z,6.07
2017-09-15T16:51:02.274Z,3.73
2017-09-15T16:53:29.386Z,3.77
2017-09-15T16:55:56.759Z,3.57
2017-09-15T16:58:24.045Z,2.83
2017-09-15T17:00:51.647Z,2.67
2017-09-15T17:03:18.823Z,2.10
2017-09-15T17:05:45.937Z,2.33
2017-09-15T17:08:12.810Z,3.20
2017-09-15T17:10:39.645Z,2.63
2017-09-15T17:13:06.774Z,2.20
2017-09-15T17:15:33.653Z,5.30
2017-09-15T17:18:00.501Z,5.60
2017-09-15T17:20:27.351Z,2.30
2017-09-15T17:22:54.219Z,2.27
2017-09-15T17:25:21.067Z,2.50
2017-09-15T17:27:47.915Z,3.20
2017-09-15T17:30:14.762Z,2.60
2017-09-15T17:32:41.599Z,3.50
2017-09-15T17:35:08.486Z,5.37
2017-09-15T17:37:35.397Z,3.70
2017-09-15T17:40:02.250Z,4.37
2017-09-15T17:42:29.097Z,3.73
2017-09-15T17:44:55.946Z,3.73
2017-09-15T17:47:22.798Z,4.43
2017-09-15T17:49:49.933Z,5.17
2017-09-15T17:52:17.090Z,4.47
2017-09-15T17:54:43.917Z,4.70
2017-09-15T17:57:10.765Z,4.67
2017-09-15T17:59:37.829Z,5.37
2017-09-15T18:02:04.695Z,6.33
2017-09-15T18:04:31.814Z,6.30
2017-09-15T18:06:58.733Z,6.70
2017-09-15T18:09:25.910Z,5.73
2017-09-15T18:11:52.757Z,6.63
2017-09-15T18:14:19.621Z,5.63
2017-09-15T18:16:46.439Z,6.13
2017-09-15T18:19:14.118Z,7.17
2017-09-15T18:21:40.986Z,7.40
2017-09-15T18:24:07.847Z,5.20
2017-09-15T18:26:34.678Z,7.60
2017-09-15T18:29:01.878Z,5.90
2017-09-15T18:31:29.036Z,6.03
2017-09-15T18:33:55.887Z,7.40
2017-09-15T18:36:22.984Z,7.67
2017-09-15T18:38:49.797Z,7.23
2017-09-15T18:41:16.917Z,7.10
2017-09-15T18:43:43.804Z,7.37
2017-09-15T18:46:10.674Z,7.67
2017-09-15T18:48:37.563Z,8.00
2017-09-15T18:51:04.401Z,8.20
2017-09-15T18:53:31.538Z,6.90
2017-09-15T18:55:58.365Z,8.07
2017-09-15T18:58:25.257Z,8.60
2017-09-15T19:00:52.110Z,8.33
2017-09-15T19:03:18.990Z,8.23
2017-09-15T19:05:46.172Z,8.50
2017-09-15T19:08:13.037Z,9.43
2017-09-15T19:10:39.885Z,7.93
2017-09-15T19:13:06.755Z,8.40
2017-09-15T19:15:33.611Z,8.23
2017-09-15T19:18:00.425Z,8.50
2017-09-15T19:20:27.297Z,8.00
2017-09-15T19:22:54.142Z,8.63
2017-09-15T19:25:21.013Z,7.37
2017-09-15T19:27:47.906Z,8.30
2017-09-15T19:30:14.858Z,9.20
2017-09-15T19:32:41.688Z,9.67
2017-09-15T19:35:08.689Z,9.67
2017-09-15T19:37:35.597Z,9.83
2017-09-15T19:40:02.430Z,9.57
2017-09-15T19:42:29.511Z,9.63
2017-09-15T19:44:56.412Z,9.17
2017-09-15T19:47:23.522Z,9.67
2017-09-15T19:49:50.677Z,8.70
2017-09-15T19:52:17.529Z,8.57
2017-09-15T19:54:44.379Z,7.90
2017-09-15T19:57:11.226Z,9.23
2017-09-15T19:59:38.058Z,8.87
2017-09-15T20:02:04.883Z,8.47
2017-09-15T20:04:32.033Z,8.40
2017-09-15T20:06:58.918Z,8.43
2017-09-15T20:09:25.749Z,8.27
2017-09-15T20:11:52.627Z,8.17
2017-09-15T20:14:19.766Z,8.90
2017-09-15T20:16:46.776Z,8.10
2017-09-15T20:19:13.691Z,7.60
2017-09-15T20:21:40.627Z,7.10
2017-09-15T20:24:07.458Z,8.57
2017-09-15T20:26:34.360Z,8.37
2017-09-15T20:29:01.493Z,7.37
2017-09-15T20:31:28.658Z,8.20
2017-09-15T20:33:55.814Z,8.00
2017-09-15T20:36:22.939Z,8.27
2017-09-15T20:38:50.099Z,9.10
2017-09-15T20:41:17.211Z,8.50
2017-09-15T20:43:44.054Z,8.20
2017-09-15T20:46:10.913Z,9.00
2017-09-15T20:48:38.416Z,7.53
2017-09-15T20:51:05.547Z,32.63
2017-09-15T20:53:32.517Z,10.50
2017-09-15T20:55:59.425Z,9.97
2017-09-15T20:58:26.282Z,8.70
2017-09-15T21:00:53.239Z,7.87
2017-09-15T21:03:20.137Z,8.00
2017-09-15T21:05:47.103Z,8.23
2017-09-15T21:08:13.993Z,8.13
2017-09-15T21:10:40.869Z,7.60
2017-09-15T21:13:08.046Z,8.30
2017-09-15T21:15:35.198Z,8.40
2017-09-15T21:18:02.093Z,7.07
2017-09-15T21:20:28.962Z,7.53
2017-09-15T21:22:55.918Z,7.43
2017-09-15T21:25:22.842Z,7.33
2017-09-15T21:27:49.714Z,7.23
2017-09-15T21:30:16.557Z,6.80
2017-09-15T21:32:43.709Z,6.83
2017-09-15T21:35:10.557Z,7.97
2017-09-15T21:37:37.398Z,7.57
2017-09-15T21:40:04.310Z,6.53
2017-09-15T21:42:31.156Z,6.90
2017-09-15T21:44:58.344Z,6.73
2017-09-15T21:47:25.189Z,5.97
2017-09-15T21:49:52.033Z,6.30
2017-09-15T21:52:18.894Z,7.50
2017-09-15T21:54:45.781Z,6.50
2017-09-15T21:57:12.609Z,6.47
2017-09-15T21:59:39.811Z,6.70
2017-09-15T22:02:06.650Z,6.20
2017-09-15T22:04:33.564Z,6.73
2017-09-15T22:07:00.441Z,6.40
2017-09-15T22:09:27.301Z,6.43
2017-09-15T22:11:54.531Z,6.60
2017-09-15T22:14:21.351Z,6.13
2017-09-15T22:16:48.213Z,6.03
2017-09-15T22:19:15.369Z,6.50
2017-09-15T22:21:42.235Z,6.53
2017-09-15T22:24:09.358Z,7.43
2017-09-15T22:26:36.510Z,7.70
2017-09-15T22:29:03.358Z,7.37
2017-09-15T22:31:30.245Z,7.97
2017-09-15T22:33:57.063Z,6.87
2017-09-15T22:36:23.877Z,8.17
2017-09-15T22:38:50.754Z,7.80
2017-09-15T22:41:17.881Z,8.67
2017-09-15T22:43:45.555Z,9.63
2017-09-15T22:46:12.433Z,9.20
2017-09-15T22:48:39.280Z,9.10
2017-09-15T22:51:06.129Z,8.40
2017-09-15T22:53:33.018Z,8.37
2017-09-15T22:56:00.169Z,9.00
2017-09-15T22:58:27.335Z,9.67
2017-09-15T23:00:54.214Z,9.00
2017-09-15T23:03:21.049Z,9.97
2017-09-15T23:05:48.157Z,9.43
2017-09-15T23:08:15.005Z,9.50
2017-09-15T23:10:42.149Z,9.50
2017-09-15T23:13:08.994Z,10.83
2017-09-15T23:15:36.142Z,10.93
2017-09-15T23:18:03.292Z,10.23
2017-09-15T23:20:30.445Z,9.93
2017-09-15T23:22:57.317Z,9.83
2017-09-15T23:25:24.194Z,9.70
2017-09-15T23:27:51.017Z,9.87
2017-09-15T23:30:17.893Z,10.03
2017-09-15T23:32:44.769Z,10.87
2017-09-15T23:35:11.625Z,11.30
2017-09-15T23:37:38.505Z,10.90
2017-09-15T23:40:05.702Z,10.40
2017-09-15T23:42:32.849Z,10.70
2017-09-15T23:44:59.693Z,10.20
2017-09-15T23:47:26.542Z,11.60
2017-09-15T23:49:53.681Z,11.97
2017-09-15T23:52:20.526Z,11.93
2017-09-15T23:54:47.373Z,10.90
2017-09-15T23:57:14.240Z,10.50
2017-09-15T23:59:41.113Z,10.57
